Time;durP1;ratioP1;P1;durP2;ratioP2;P2;SDS_P1;SDS_P2;PMS_P1;PMS_P2;Temp;Humidity;BMP_temperature;BMP_pressure;BME280_temperature;BME280_humidity;BME280_pressure;Samples;Min_cycle;Max_cycle;Signal;HPM_P1;HPM_P2
2022/09/22 00:01:27;;;;;;;6.00;3.90;;;10.50;99.90;;;;;;5028917;28;20021;-77
2022/09/22 00:04:00;;;;;;;9.35;4.32;;;10.50;99.90;;;;;;5032185;28;20045;-77
2022/09/22 00:06:32;;;;;;;6.30;4.13;;;10.50;99.90;;;;;;5032347;28;20434;-77
2022/09/22 00:09:02;;;;;;;10.60;4.15;;;10.50;99.90;;;;;;5031757;28;20021;-77
2022/09/22 00:11:30;;;;;;;12.68;4.40;;;10.50;99.90;;;;;;5045661;28;20025;-77
2022/09/22 00:13:58;;;;;;;14.65;5.05;;;10.40;99.90;;;;;;5031569;28;20076;-77
2022/09/22 00:16:35;;;;;;;7.43;4.10;;;10.40;99.90;;;;;;5031920;28;20124;-77
2022/09/22 00:19:04;;;;;;;10.07;4.40;;;10.40;99.90;;;;;;5033377;28;20030;-77
2022/09/22 00:21:29;;;;;;;8.82;4.30;;;10.40;99.90;;;;;;5032476;28;20064;-77
2022/09/22 00:23:55;;;;;;;8.98;4.45;;;10.40;99.90;;;;;;5032746;28;20069;-77
2022/09/22 00:26:22;;;;;;;10.27;4.68;;;10.40;99.90;;;;;;5031839;28;20033;-76
2022/09/22 00:28:50;;;;;;;10.00;4.25;;;10.40;99.90;;;;;;5021425;28;20113;-77
2022/09/22 00:31:23;;;;;;;8.05;4.63;;;10.30;99.90;;;;;;5027837;28;20030;-77
2022/09/22 00:33:51;;;;;;;12.02;4.72;;;10.30;99.90;;;;;;5022338;28;20033;-77
2022/09/22 00:36:18;;;;;;;7.82;4.32;;;10.30;99.90;;;;;;5021437;28;20088;-77
2022/09/22 00:38:45;;;;;;;12.40;4.47;;;10.30;99.90;;;;;;5032073;28;20036;-77
2022/09/22 00:41:23;;;;;;;8.73;4.10;;;10.30;99.90;;;;;;5030981;28;20716;-77
2022/09/22 00:44:10;;;;;;;8.80;4.63;;;10.30;99.90;;;;;;5024381;28;20034;-77
2022/09/22 00:46:38;;;;;;;10.90;4.60;;;10.30;99.90;;;;;;5027390;28;20108;-77
2022/09/22 00:49:06;;;;;;;7.70;4.72;;;10.20;99.90;;;;;;5019495;28;20052;-77
2022/09/22 00:51:35;;;;;;;11.18;4.95;;;10.20;99.90;;;;;;5027537;28;20045;-77
2022/09/22 00:54:04;;;;;;;8.15;4.65;;;10.20;99.90;;;;;;5031137;28;20500;-77
2022/09/22 00:56:40;;;;;;;8.63;4.97;;;10.20;99.90;;;;;;5031744;28;20104;-77
2022/09/22 00:59:12;;;;;;;9.13;4.70;;;10.20;99.90;;;;;;5031225;28;20029;-77
2022/09/22 01:01:39;;;;;;;7.38;4.13;;;10.20;99.90;;;;;;5031455;28;20037;-77
2022/09/22 01:04:05;;;;;;;6.28;4.30;;;10.10;99.90;;;;;;5029323;28;20026;-77
2022/09/22 01:06:32;;;;;;;8.02;4.40;;;10.10;99.90;;;;;;5029214;28;20462;-76
2022/09/22 01:08:58;;;;;;;8.35;4.68;;;10.10;99.90;;;;;;5030388;28;20029;-77
2022/09/22 01:11:25;;;;;;;11.40;5.05;;;10.10;99.90;;;;;;5032349;28;20388;-77
2022/09/22 01:14:30;;;;;;;10.88;4.75;;;10.10;99.90;;;;;;5029751;28;20033;-77
2022/09/22 01:16:59;;;;;;;8.52;4.10;;;10.10;99.90;;;;;;5030191;28;20033;-77
2022/09/22 01:19:42;;;;;;;7.63;3.72;;;10.00;99.90;;;;;;5031594;28;20026;-77
2022/09/22 01:22:08;;;;;;;6.85;4.50;;;10.00;99.90;;;;;;5031005;28;20051;-77
2022/09/22 01:25:11;;;;;;;9.27;4.13;;;10.00;99.90;;;;;;5031546;28;20686;-77
2022/09/22 01:28:08;;;;;;;8.85;4.38;;;10.00;99.90;;;;;;5028700;28;20038;-77
2022/09/22 01:31:01;;;;;;;9.18;4.10;;;10.00;99.90;;;;;;5025927;28;20030;-76
2022/09/22 01:33:53;;;;;;;8.27;4.28;;;10.00;99.90;;;;;;5025017;28;20116;-77
2022/09/22 01:36:30;;;;;;;17.40;4.95;;;10.00;99.90;;;;;;5027831;28;20037;-77
2022/09/22 01:39:04;;;;;;;8.75;4.50;;;9.90;99.90;;;;;;5031289;28;20386;-77
2022/09/22 01:41:57;;;;;;;7.68;4.47;;;9.90;99.90;;;;;;5018737;28;20064;-76
2022/09/22 01:44:30;;;;;;;8.93;4.03;;;9.90;99.90;;;;;;5030541;28;20061;-77
2022/09/22 01:47:03;;;;;;;7.97;4.43;;;9.90;99.90;;;;;;5029982;28;20057;-77
2022/09/22 01:49:34;;;;;;;6.00;4.30;;;9.90;99.90;;;;;;5017472;28;20021;-77
2022/09/22 01:52:06;;;;;;;7.47;4.15;;;9.90;99.90;;;;;;5029751;28;20463;-77
2022/09/22 01:54:44;;;;;;;9.00;4.50;;;9.90;99.90;;;;;;5030506;28;20600;-77
2022/09/22 01:57:16;;;;;;;8.93;4.57;;;9.80;99.90;;;;;;5029109;28;20143;-77
2022/09/22 01:59:46;;;;;;;7.68;4.35;;;9.80;99.90;;;;;;5030588;28;20098;-76
2022/09/22 02:02:25;;;;;;;7.78;4.35;;;9.80;99.90;;;;;;5024674;28;20104;-76
2022/09/22 02:04:55;;;;;;;8.63;4.55;;;9.80;99.90;;;;;;5024631;28;20025;-76
2022/09/22 02:07:29;;;;;;;7.13;4.35;;;9.80;99.90;;;;;;5029992;28;20083;-76
2022/09/22 02:09:59;;;;;;;11.25;4.82;;;9.80;99.90;;;;;;5024398;28;20025;-76
2022/09/22 02:12:24;;;;;;;10.23;5.03;;;9.80;99.90;;;;;;5023844;28;20080;-76
2022/09/22 02:14:50;;;;;;;10.30;4.80;;;9.80;99.90;;;;;;5026602;28;20517;-76
2022/09/22 02:17:16;;;;;;;8.85;5.15;;;9.80;99.90;;;;;;5030739;28;20155;-77
2022/09/22 02:19:42;;;;;;;8.02;4.50;;;9.80;99.90;;;;;;5021623;28;20393;-76
2022/09/22 02:22:10;;;;;;;8.25;4.95;;;9.80;99.90;;;;;;5030807;28;20022;-76
2022/09/22 02:24:41;;;;;;;7.07;4.57;;;9.80;99.90;;;;;;5029837;28;20108;-76
2022/09/22 02:27:19;;;;;;;9.18;4.35;;;9.70;99.90;;;;;;5029954;28;20056;-76
2022/09/22 02:29:53;;;;;;;7.47;4.53;;;9.70;99.90;;;;;;5030925;28;20159;-76
2022/09/22 02:32:20;;;;;;;9.60;4.83;;;9.70;99.90;;;;;;5029559;28;20053;-76
2022/09/22 02:34:47;;;;;;;11.00;4.78;;;9.70;99.90;;;;;;5029404;28;20482;-76
2022/09/22 02:37:31;;;;;;;6.80;4.65;;;9.70;99.90;;;;;;5029904;28;20120;-76
2022/09/22 02:40:02;;;;;;;8.82;4.68;;;9.70;99.90;;;;;;5030000;28;20445;-76
2022/09/22 02:42:40;;;;;;;7.18;4.30;;;9.60;99.90;;;;;;5030018;28;20037;-76
2022/09/22 02:45:25;;;;;;;8.13;4.72;;;9.60;99.90;;;;;;5022569;28;20025;-76
2022/09/22 02:48:02;;;;;;;6.80;4.43;;;9.60;99.90;;;;;;5029470;28;20041;-77
2022/09/22 02:50:29;;;;;;;6.70;4.50;;;9.60;99.90;;;;;;5028826;28;20038;-76
2022/09/22 02:53:03;;;;;;;8.02;4.65;;;9.60;99.90;;;;;;5041555;28;20029;-77
2022/09/22 02:55:28;;;;;;;9.25;4.65;;;9.60;99.90;;;;;;5027682;28;20030;-76
2022/09/22 02:57:54;;;;;;;7.80;4.20;;;9.50;99.90;;;;;;5029350;28;20026;-77
2022/09/22 03:00:21;;;;;;;8.85;4.95;;;9.50;99.90;;;;;;5014592;28;20030;-77
2022/09/22 03:02:46;;;;;;;10.55;5.18;;;9.50;99.90;;;;;;5033022;28;20533;-77
2022/09/22 03:05:12;;;;;;;7.32;5.00;;;9.50;99.90;;;;;;5028116;28;20113;-76
2022/09/22 03:07:38;;;;;;;9.10;4.80;;;9.50;99.90;;;;;;5022068;28;20113;-77
2022/09/22 03:10:04;;;;;;;8.00;4.75;;;9.50;99.90;;;;;;5026894;28;20369;-77
2022/09/22 03:12:30;;;;;;;7.40;4.63;;;9.50;99.90;;;;;;5027293;28;20095;-77
2022/09/22 03:14:58;;;;;;;8.88;5.13;;;9.50;99.90;;;;;;5028850;28;20025;-77
2022/09/22 03:17:24;;;;;;;12.07;5.18;;;9.50;99.90;;;;;;5029513;28;20029;-76
2022/09/22 03:19:49;;;;;;;10.05;5.18;;;9.40;99.90;;;;;;5028510;28;20242;-76
2022/09/22 03:22:15;;;;;;;12.10;5.35;;;9.40;99.90;;;;;;5029548;28;20033;-77
2022/09/22 03:24:41;;;;;;;8.63;5.50;;;9.40;99.90;;;;;;5028577;28;20537;-76
2022/09/22 03:27:06;;;;;;;10.32;5.40;;;9.40;99.90;;;;;;5029258;28;20028;-76
2022/09/22 03:29:32;;;;;;;11.43;6.03;;;9.40;99.90;;;;;;5029709;28;20030;-76
2022/09/22 03:31:58;;;;;;;10.13;5.60;;;9.40;99.90;;;;;;5028157;28;20025;-76
2022/09/22 03:34:23;;;;;;;11.48;5.65;;;9.40;99.90;;;;;;5029191;28;20545;-76
2022/09/22 03:36:50;;;;;;;9.48;5.63;;;9.30;99.90;;;;;;5030081;28;20147;-76
2022/09/22 03:39:15;;;;;;;12.60;5.75;;;9.30;99.90;;;;;;5033154;28;20041;-77
2022/09/22 03:41:41;;;;;;;13.50;6.00;;;9.30;99.90;;;;;;5043023;28;20021;-76
2022/09/22 03:44:06;;;;;;;8.52;5.40;;;9.30;99.90;;;;;;5024848;28;20038;-76
2022/09/22 03:46:33;;;;;;;12.07;5.97;;;9.30;99.90;;;;;;5025523;28;20033;-77
2022/09/22 03:48:59;;;;;;;11.68;5.65;;;9.30;99.90;;;;;;5033265;28;20386;-76
2022/09/22 03:51:25;;;;;;;11.43;6.03;;;9.30;99.90;;;;;;5032571;28;20056;-77
2022/09/22 03:53:50;;;;;;;10.52;5.40;;;9.30;99.90;;;;;;5032538;28;20033;-76
2022/09/22 03:56:16;;;;;;;9.38;5.40;;;9.30;99.90;;;;;;5032763;28;20022;-76
2022/09/22 03:58:42;;;;;;;10.93;5.45;;;9.20;99.90;;;;;;5023023;28;20018;-77
2022/09/22 04:01:10;;;;;;;10.57;5.93;;;9.20;99.90;;;;;;5034569;28;20028;-77
2022/09/22 04:03:36;;;;;;;8.75;5.35;;;9.20;99.90;;;;;;5032066;28;20037;-77
2022/09/22 04:06:04;;;;;;;13.48;5.68;;;9.20;99.90;;;;;;5033295;28;20026;-77
2022/09/22 04:08:30;;;;;;;9.82;4.93;;;9.20;99.90;;;;;;5032408;28;20048;-77
2022/09/22 04:10:56;;;;;;;8.65;5.60;;;9.20;99.90;;;;;;5027654;28;20026;-76
2022/09/22 04:13:22;;;;;;;13.13;5.93;;;9.20;99.90;;;;;;5032426;28;20556;-77
2022/09/22 04:15:48;;;;;;;8.43;5.68;;;9.20;99.90;;;;;;5032368;28;20715;-77
2022/09/22 04:18:14;;;;;;;12.73;5.95;;;9.10;99.90;;;;;;5031562;28;20017;-77
2022/09/22 04:20:44;;;;;;;10.68;6.10;;;9.10;99.90;;;;;;5033485;28;20323;-77
2022/09/22 04:23:11;;;;;;;8.80;5.70;;;9.10;99.90;;;;;;5032664;28;20080;-77
2022/09/22 04:25:37;;;;;;;8.57;5.65;;;9.10;99.90;;;;;;5033068;28;20025;-77
2022/09/22 04:28:04;;;;;;;13.00;5.90;;;9.10;99.90;;;;;;5030893;28;20425;-76
2022/09/22 04:30:30;;;;;;;12.90;6.10;;;9.10;99.90;;;;;;5032574;28;20025;-77
2022/09/22 04:32:55;;;;;;;9.32;5.82;;;9.00;99.90;;;;;;5032667;28;20030;-77
2022/09/22 04:35:21;;;;;;;8.50;5.90;;;9.00;99.90;;;;;;5031835;28;20026;-77
2022/09/22 04:37:47;;;;;;;12.32;5.75;;;9.00;99.90;;;;;;5032678;28;20068;-76
2022/09/22 04:40:12;;;;;;;8.80;5.55;;;9.00;99.90;;;;;;5031851;28;20030;-77
2022/09/22 04:42:38;;;;;;;8.77;5.80;;;9.00;99.90;;;;;;5032554;28;20422;-77
2022/09/22 04:45:07;;;;;;;14.75;6.40;;;9.00;99.90;;;;;;5031780;28;20025;-77
2022/09/22 04:47:32;;;;;;;9.25;6.10;;;9.00;99.90;;;;;;5027826;28;20029;-77
2022/09/22 04:49:58;;;;;;;10.77;6.13;;;9.00;99.90;;;;;;5031899;28;20241;-77
2022/09/22 04:52:24;;;;;;;10.10;6.15;;;9.00;99.90;;;;;;5032289;28;20490;-76
2022/09/22 04:54:50;;;;;;;8.98;5.70;;;8.90;99.90;;;;;;5031660;28;20025;-76
2022/09/22 04:57:15;;;;;;;11.88;6.07;;;9.00;99.90;;;;;;5028026;28;20030;-76
2022/09/22 04:59:41;;;;;;;11.18;6.07;;;9.00;99.90;;;;;;5035569;28;20762;-76
2022/09/22 05:02:06;;;;;;;9.32;5.85;;;8.90;99.90;;;;;;5030290;28;20053;-76
2022/09/22 05:04:32;;;;;;;9.63;5.78;;;8.90;99.90;;;;;;5032239;28;20031;-76
2022/09/22 05:06:57;;;;;;;14.82;6.38;;;8.90;99.90;;;;;;5043605;28;20021;-76
2022/09/22 05:09:23;;;;;;;14.88;6.35;;;8.90;99.90;;;;;;5038555;28;20460;-76
2022/09/22 05:11:49;;;;;;;9.90;6.03;;;8.90;99.90;;;;;;5037626;28;20093;-76
2022/09/22 05:14:15;;;;;;;8.93;5.90;;;8.90;99.90;;;;;;5019085;28;20136;-76
2022/09/22 05:16:41;;;;;;;13.52;6.32;;;8.90;99.90;;;;;;5036247;28;20013;-75
2022/09/22 05:19:10;;;;;;;10.07;6.18;;;8.90;99.90;;;;;;5030075;28;20018;-75
2022/09/22 05:21:36;;;;;;;11.70;6.72;;;8.80;99.90;;;;;;5035015;28;20038;-75
2022/09/22 05:24:02;;;;;;;7.93;5.70;;;8.80;99.90;;;;;;5031093;28;20528;-75
2022/09/22 05:26:29;;;;;;;16.23;6.82;;;8.80;99.90;;;;;;5026630;28;20533;-75
2022/09/22 05:28:56;;;;;;;13.23;6.40;;;8.80;99.90;;;;;;5029289;28;20040;-75
2022/09/22 05:31:22;;;;;;;10.70;7.15;;;8.80;99.90;;;;;;5031509;28;20171;-75
2022/09/22 05:33:48;;;;;;;11.18;6.70;;;8.80;99.90;;;;;;5044851;28;20029;-75
2022/09/22 05:36:14;;;;;;;10.45;6.28;;;8.80;99.90;;;;;;5047654;28;20525;-75
2022/09/22 05:38:40;;;;;;;11.68;7.05;;;8.80;99.90;;;;;;5038587;28;20056;-75
2022/09/22 05:41:06;;;;;;;14.75;7.57;;;8.80;99.90;;;;;;5040573;28;20026;-76
2022/09/22 05:43:31;;;;;;;10.70;7.25;;;8.80;99.90;;;;;;5032321;28;20107;-76
2022/09/22 05:45:57;;;;;;;11.85;7.22;;;8.80;99.90;;;;;;5033005;28;20682;-76
2022/09/22 05:48:23;;;;;;;13.38;7.50;;;8.80;99.90;;;;;;5031002;28;20029;-76
2022/09/22 05:50:48;;;;;;;15.77;7.88;;;8.80;99.90;;;;;;5035472;28;20496;-76
2022/09/22 05:53:14;;;;;;;15.20;7.50;;;8.80;99.90;;;;;;5047359;28;20100;-76
2022/09/22 05:55:40;;;;;;;11.88;7.80;;;8.80;99.90;;;;;;5037106;28;20034;-76
2022/09/22 05:58:08;;;;;;;13.07;7.90;;;8.80;99.90;;;;;;5041949;28;20026;-76
2022/09/22 06:00:33;;;;;;;11.60;7.82;;;8.80;99.90;;;;;;5030485;28;20049;-75
2022/09/22 06:02:59;;;;;;;16.52;8.07;;;8.80;99.90;;;;;;5041850;28;20049;-76
2022/09/22 06:05:25;;;;;;;14.60;8.18;;;8.80;99.90;;;;;;5037300;28;20028;-76
2022/09/22 06:08:02;;;;;;;14.23;8.00;;;8.80;99.90;;;;;;5024860;28;20025;-75
2022/09/22 06:10:34;;;;;;;19.17;9.02;;;8.80;99.90;;;;;;5023863;28;20234;-76
2022/09/22 06:13:02;;;;;;;16.48;9.70;;;8.90;99.90;;;;;;5043686;28;20112;-75
2022/09/22 06:15:28;;;;;;;14.93;8.73;;;8.90;99.90;;;;;;5036622;28;20040;-76
2022/09/22 06:17:55;;;;;;;13.73;9.73;;;8.90;99.90;;;;;;5046127;28;20092;-76
2022/09/22 06:20:22;;;;;;;17.58;9.93;;;8.90;99.90;;;;;;5046807;28;20094;-76
2022/09/22 06:22:47;;;;;;;15.60;9.55;;;8.90;99.90;;;;;;5047976;28;20488;-76
2022/09/22 06:25:14;;;;;;;15.82;9.80;;;8.90;99.90;;;;;;5046292;28;20040;-76
2022/09/22 06:27:39;;;;;;;19.02;10.40;;;9.00;99.90;;;;;;5040128;28;20026;-76
2022/09/22 06:30:09;;;;;;;18.95;10.20;;;9.00;99.90;;;;;;5044128;28;20028;-76
2022/09/22 06:32:38;;;;;;;18.65;10.38;;;9.00;99.90;;;;;;5040460;28;20040;-76
2022/09/22 06:35:05;;;;;;;17.85;11.00;;;9.10;99.90;;;;;;5030371;28;20017;-76
2022/09/22 06:37:31;;;;;;;17.70;10.82;;;9.10;99.90;;;;;;5018999;28;20133;-76
2022/09/22 06:39:57;;;;;;;19.88;11.10;;;9.10;99.90;;;;;;5040964;28;20414;-76
2022/09/22 06:42:22;;;;;;;19.25;11.95;;;9.20;99.90;;;;;;5028121;28;20623;-76
2022/09/22 06:44:48;;;;;;;21.45;12.32;;;9.20;99.90;;;;;;5028717;28;20385;-75
2022/09/22 06:47:14;;;;;;;19.35;12.23;;;9.20;99.90;;;;;;5029024;28;20022;-75
2022/09/22 06:49:41;;;;;;;18.98;13.38;;;9.30;99.90;;;;;;5030651;28;20022;-76
2022/09/22 06:52:11;;;;;;;21.63;14.52;;;9.30;99.90;;;;;;5029728;28;20529;-75
2022/09/22 06:54:39;;;;;;;21.27;14.38;;;9.40;99.90;;;;;;5019993;28;20385;-75
2022/09/22 06:57:05;;;;;;;28.88;17.58;;;9.40;99.90;;;;;;5030073;28;20488;-75
2022/09/22 06:59:32;;;;;;;24.05;17.35;;;9.50;99.90;;;;;;5022464;28;20032;-75
2022/09/22 07:01:57;;;;;;;30.15;19.00;;;9.50;99.90;;;;;;5036243;28;20021;-75
2022/09/22 07:04:23;;;;;;;29.42;19.70;;;9.60;99.90;;;;;;5029489;28;20033;-76
2022/09/22 07:06:49;;;;;;;32.95;21.17;;;9.70;99.90;;;;;;5029620;28;20089;-75
2022/09/22 07:09:15;;;;;;;29.42;21.10;;;9.80;99.90;;;;;;5026890;28;20022;-75
2022/09/22 07:11:41;;;;;;;37.55;21.05;;;9.80;99.90;;;;;;5018906;28;20044;-75
2022/09/22 07:14:07;;;;;;;36.47;21.38;;;9.90;99.90;;;;;;5029444;28;20030;-75
2022/09/22 07:16:33;;;;;;;33.30;22.92;;;9.90;99.90;;;;;;5033626;28;20105;-75
2022/09/22 07:18:58;;;;;;;34.65;23.27;;;10.00;99.90;;;;;;5039181;28;20452;-75
2022/09/22 07:21:26;;;;;;;36.28;23.77;;;10.10;99.90;;;;;;5029453;28;20022;-75
2022/09/22 07:23:56;;;;;;;34.85;22.92;;;10.20;99.90;;;;;;5029917;28;20384;-75
2022/09/22 07:26:31;;;;;;;40.92;23.88;;;10.20;99.90;;;;;;5029252;28;20026;-75
2022/09/22 07:28:59;;;;;;;38.45;26.25;;;10.30;99.90;;;;;;5029683;28;20045;-75
2022/09/22 07:31:26;;;;;;;41.83;27.38;;;10.40;99.90;;;;;;5029663;28;20366;-75
2022/09/22 07:33:53;;;;;;;42.33;28.67;;;10.50;99.90;;;;;;5029511;28;20095;-75
2022/09/22 07:36:21;;;;;;;41.13;28.75;;;10.50;99.90;;;;;;5029724;28;20017;-75
2022/09/22 07:38:50;;;;;;;48.17;30.00;;;10.60;99.90;;;;;;5029221;28;20025;-75
2022/09/22 07:41:22;;;;;;;45.45;30.25;;;10.70;99.90;;;;;;5029495;28;20029;-75
2022/09/22 07:43:52;;;;;;;47.22;32.50;;;10.80;99.90;;;;;;5029176;28;20060;-75
2022/09/22 07:46:18;;;;;;;46.35;31.38;;;10.90;99.90;;;;;;5029663;28;20022;-75
2022/09/22 07:48:46;;;;;;;45.70;32.50;;;11.00;99.90;;;;;;5032277;28;20056;-75
2022/09/22 07:51:20;;;;;;;48.88;31.70;;;11.20;99.90;;;;;;5039511;28;20056;-76
2022/09/22 07:54:08;;;;;;;45.20;32.25;;;11.20;99.90;;;;;;5043171;28;20025;-75
2022/09/22 07:56:35;;;;;;;46.47;30.65;;;11.40;99.90;;;;;;5029342;28;20092;-75
2022/09/22 07:59:07;;;;;;;43.15;30.17;;;11.50;99.90;;;;;;5032596;28;20100;-75
2022/09/22 08:01:34;;;;;;;42.92;29.75;;;11.60;99.90;;;;;;5049953;28;20051;-75
2022/09/22 08:04:00;;;;;;;38.38;28.13;;;11.80;99.90;;;;;;5034839;28;20029;-75
2022/09/22 08:06:27;;;;;;;42.50;28.48;;;11.90;99.90;;;;;;5040764;28;20549;-75
2022/09/22 08:08:55;;;;;;;43.33;29.20;;;12.10;99.90;;;;;;5029569;28;20357;-75
2022/09/22 08:11:27;;;;;;;36.38;26.52;;;12.20;99.90;;;;;;5015706;28;20061;-75
2022/09/22 08:13:58;;;;;;;41.15;25.33;;;12.40;99.90;;;;;;5029452;28;20485;-75
2022/09/22 08:16:27;;;;;;;36.72;24.00;;;12.60;99.90;;;;;;5029180;28;20014;-75
2022/09/22 08:18:55;;;;;;;31.80;23.83;;;12.80;99.90;;;;;;5029026;28;20105;-75
2022/09/22 08:21:34;;;;;;;37.58;23.92;;;12.90;99.90;;;;;;5028678;28;20017;-74
2022/09/22 08:24:03;;;;;;;34.85;22.40;;;13.20;99.90;;;;;;5032571;28;20076;-75
2022/09/22 08:26:29;;;;;;;32.53;21.25;;;13.30;99.90;;;;;;5032958;28;20030;-75
2022/09/22 08:28:56;;;;;;;33.80;21.17;;;13.50;99.90;;;;;;5033088;28;20091;-75
2022/09/22 08:31:23;;;;;;;29.58;20.25;;;13.60;99.90;;;;;;5032371;28;20021;-75
2022/09/22 08:33:50;;;;;;;30.90;20.15;;;13.80;99.90;;;;;;5033025;28;20033;-75
2022/09/22 08:36:16;;;;;;;30.48;19.23;;;14.00;99.90;;;;;;5032861;28;20082;-75
2022/09/22 08:38:44;;;;;;;37.05;20.42;;;14.30;99.90;;;;;;5032244;28;20410;-75
2022/09/22 08:41:25;;;;;;;26.83;18.20;;;14.50;99.90;;;;;;5033375;28;20029;-75
2022/09/22 08:44:00;;;;;;;26.75;18.98;;;14.60;99.90;;;;;;5032198;28;20108;-75
2022/09/22 08:46:34;;;;;;;26.38;17.38;;;14.80;99.90;;;;;;5032413;28;20037;-75
2022/09/22 08:52:03;;;;;;;25.52;15.07;;;15.20;99.90;;;;;;5031979;28;20055;-75
2022/09/22 08:54:30;;;;;;;27.45;15.40;;;15.40;99.90;;;;;;5032542;28;20048;-75
2022/09/22 08:57:24;;;;;;;23.15;14.25;;;15.60;99.90;;;;;;5045618;28;20021;-75
2022/09/22 09:00:17;;;;;;;19.92;12.85;;;15.80;99.90;;;;;;5043140;28;20079;-75
2022/09/22 09:02:44;;;;;;;23.17;12.88;;;16.00;99.90;;;;;;5031106;28;20041;-74
2022/09/22 09:05:48;;;;;;;20.48;11.43;;;16.00;99.90;;;;;;5031991;28;20101;-75
2022/09/22 09:08:21;;;;;;;17.95;11.75;;;16.20;99.90;;;;;;5021375;28;20025;-74
2022/09/22 09:10:54;;;;;;;15.93;10.30;;;16.40;99.90;;;;;;5019081;28;20065;-74
2022/09/22 09:13:40;;;;;;;20.13;10.27;;;16.50;99.90;;;;;;5031752;28;20055;-74
2022/09/22 09:16:19;;;;;;;14.88;9.57;;;16.60;99.90;;;;;;5031948;28;20026;-74
2022/09/22 09:18:53;;;;;;;16.40;9.63;;;16.80;99.90;;;;;;5031451;28;20548;-74
2022/09/22 09:21:21;;;;;;;18.00;9.07;;;16.90;99.90;;;;;;5031569;28;20101;-74
2022/09/22 09:23:51;;;;;;;15.18;8.88;;;17.00;99.90;;;;;;5032048;28;20025;-74
2022/09/22 09:26:17;;;;;;;16.02;9.20;;;17.10;99.90;;;;;;5031054;28;20038;-74
2022/09/22 09:29:05;;;;;;;18.60;8.05;;;17.10;99.90;;;;;;5038328;28;20499;-74
2022/09/22 09:31:42;;;;;;;14.43;7.88;;;17.30;99.90;;;;;;5036316;28;20052;-74
2022/09/22 09:34:21;;;;;;;11.80;7.40;;;17.50;99.90;;;;;;5030300;28;20076;-74
2022/09/22 09:36:54;;;;;;;16.85;6.75;;;17.50;99.90;;;;;;5029604;28;20030;-74
2022/09/22 09:39:38;;;;;;;11.02;6.07;;;17.50;99.90;;;;;;5031944;28;20041;-75
2022/09/22 09:42:27;;;;;;;11.55;5.30;;;17.60;99.90;;;;;;5032079;28;20029;-75
2022/09/22 09:44:54;;;;;;;11.88;5.53;;;17.70;99.90;;;;;;5032446;28;20057;-75
2022/09/22 09:47:39;;;;;;;12.05;5.03;;;17.80;99.90;;;;;;5031643;28;20084;-75
2022/09/22 09:50:05;;;;;;;11.57;6.00;;;18.10;99.90;;;;;;5032254;28;20027;-75
2022/09/22 09:52:35;;;;;;;10.55;5.28;;;18.10;99.90;;;;;;5031437;28;20452;-75
2022/09/22 09:55:01;;;;;;;7.82;5.22;;;18.20;99.90;;;;;;5031210;28;20124;-75
2022/09/22 09:57:28;;;;;;;14.52;6.00;;;18.30;99.90;;;;;;5031981;28;20109;-74
2022/09/22 10:00:30;;;;;;;13.60;6.35;;;18.40;99.90;;;;;;5031207;28;20036;-74
2022/09/22 10:03:11;;;;;;;14.43;6.38;;;18.50;99.90;;;;;;5020353;28;20046;-74
2022/09/22 10:05:37;;;;;;;8.88;4.75;;;18.60;99.90;;;;;;5030671;28;20033;-76
2022/09/22 10:08:18;;;;;;;10.25;5.97;;;18.60;99.90;;;;;;5030755;28;20497;-74
2022/09/22 10:10:45;;;;;;;13.13;5.50;;;18.70;99.90;;;;;;5017096;28;20113;-75
2022/09/22 10:13:10;;;;;;;6.95;5.57;;;18.80;99.90;;;;;;5030633;28;20467;-75
2022/09/22 10:15:39;;;;;;;11.15;4.93;;;18.80;99.20;;;;;;5031453;28;20029;-75
2022/09/22 10:18:23;;;;;;;9.40;4.82;;;18.80;98.70;;;;;;5030218;28;20436;-75
2022/09/22 10:21:22;;;;;;;12.85;5.40;;;18.90;97.90;;;;;;5031004;28;20025;-75
2022/09/22 10:23:51;;;;;;;10.27;4.90;;;18.90;97.40;;;;;;5039118;28;20040;-75
2022/09/22 10:26:20;;;;;;;9.65;4.40;;;19.00;97.60;;;;;;5049225;28;20028;-75
2022/09/22 10:29:10;;;;;;;10.55;4.60;;;19.10;97.40;;;;;;5030659;28;20022;-75
2022/09/22 10:31:37;;;;;;;7.63;3.97;;;19.20;96.80;;;;;;5037288;28;20556;-75
2022/09/22 10:34:04;;;;;;;8.60;4.07;;;19.30;96.70;;;;;;5041595;28;20021;-75
2022/09/22 10:36:32;;;;;;;10.20;4.60;;;19.50;96.70;;;;;;5029841;28;20029;-75
2022/09/22 10:38:58;;;;;;;7.22;3.88;;;19.60;96.00;;;;;;5030746;28;20029;-76
2022/09/22 10:41:30;;;;;;;5.80;3.40;;;19.70;95.30;;;;;;5030292;28;20033;-75
2022/09/22 10:44:09;;;;;;;7.43;3.85;;;19.80;94.00;;;;;;5038483;28;20033;-75
2022/09/22 10:46:54;;;;;;;6.28;4.07;;;19.80;93.60;;;;;;5030687;28;20079;-75
2022/09/22 10:49:37;;;;;;;7.18;4.10;;;19.80;93.30;;;;;;5026167;28;20128;-75
2022/09/22 10:52:14;;;;;;;8.60;4.35;;;19.90;92.50;;;;;;5030399;28;20041;-75
2022/09/22 10:55:07;;;;;;;9.82;4.05;;;20.00;92.70;;;;;;5029681;28;20017;-75
2022/09/22 10:57:59;;;;;;;10.38;3.95;;;20.10;92.00;;;;;;5035973;28;20428;-76
2022/09/22 11:00:26;;;;;;;9.98;4.30;;;20.10;91.60;;;;;;5047799;28;20025;-76
2022/09/22 11:03:06;;;;;;;12.18;3.65;;;20.20;91.60;;;;;;5045272;28;20029;-76
2022/09/22 11:12:18;;;;;;;9.82;2.92;;;20.40;89.40;;;;;;5044611;28;20087;-76
2022/09/22 11:15:09;;;;;;;7.00;2.67;;;20.40;89.80;;;;;;5039022;28;20056;-75
2022/09/22 11:17:59;;;;;;;4.00;2.08;;;20.50;89.10;;;;;;5040484;28;20052;-75
2022/09/22 11:20:43;;;;;;;8.52;2.40;;;20.60;87.50;;;;;;5040614;28;20021;-75
2022/09/22 11:23:34;;;;;;;6.18;2.70;;;20.50;85.90;;;;;;5032202;28;20040;-74
2022/09/22 11:26:17;;;;;;;6.03;2.50;;;20.50;84.00;;;;;;5037340;28;20248;-74
2022/09/22 11:28:59;;;;;;;5.60;2.50;;;20.50;84.40;;;;;;5041703;28;20028;-74
2022/09/22 11:31:41;;;;;;;6.70;2.92;;;20.50;84.10;;;;;;5033679;28;20555;-74
2022/09/22 11:34:19;;;;;;;5.18;2.78;;;20.50;84.10;;;;;;5019799;28;20022;-75
2022/09/22 11:37:26;;;;;;;7.38;3.05;;;20.60;82.80;;;;;;5029274;28;20026;-74
2022/09/22 11:40:00;;;;;;;;;;;20.60;82.20;;;;;;5035610;28;20033;-74
2022/09/22 11:42:45;;;;;;;7.10;2.90;;;20.70;81.90;;;;;;5028839;28;19905;-74
2022/09/22 11:45:26;;;;;;;7.53;3.58;;;20.80;82.20;;;;;;5032540;28;20021;-74
2022/09/22 11:48:07;;;;;;;8.48;4.10;;;20.80;81.10;;;;;;5027101;28;20433;-75
2022/09/22 11:51:00;;;;;;;6.40;3.38;;;20.80;80.40;;;;;;5037547;28;20168;-74
2022/09/22 11:53:54;;;;;;;7.78;3.75;;;20.80;80.60;;;;;;5029856;28;20024;-74
2022/09/22 11:56:38;;;;;;;8.20;2.92;;;20.80;80.60;;;;;;5028983;28;20033;-75
2022/09/22 11:59:15;;;;;;;4.45;2.28;;;20.90;79.90;;;;;;5032796;28;20122;-74
2022/09/22 12:01:41;;;;;;;7.35;2.42;;;20.90;79.00;;;;;;5025018;28;20103;-74
2022/09/22 12:04:15;;;;;;;7.43;2.17;;;20.90;79.00;;;;;;5032932;28;20025;-75
2022/09/22 12:06:45;;;;;;;4.63;1.73;;;21.00;77.20;;;;;;5024096;28;20056;-74
2022/09/22 12:09:25;;;;;;;6.10;1.88;;;21.00;77.40;;;;;;5041807;28;20025;-75
2022/09/22 12:11:53;;;;;;;6.47;2.30;;;21.10;76.40;;;;;;5033662;28;20052;-75
2022/09/22 12:14:19;;;;;;;4.25;2.10;;;21.10;75.20;;;;;;5032962;28;20030;-75
2022/09/22 12:17:04;;;;;;;4.10;2.03;;;21.10;74.70;;;;;;5032974;28;20009;-75
2022/09/22 12:19:42;;;;;;;5.97;2.30;;;21.20;72.90;;;;;;5032659;28;20519;-75
2022/09/22 12:22:26;;;;;;;5.78;2.30;;;21.20;73.20;;;;;;5033487;28;20100;-75
2022/09/22 12:24:52;;;;;;;6.63;2.03;;;21.20;72.70;;;;;;5032426;28;20037;-75
2022/09/22 12:27:28;;;;;;;5.57;2.20;;;21.20;73.10;;;;;;5033634;28;20037;-75
2022/09/22 12:30:03;;;;;;;5.85;1.60;;;21.20;71.40;;;;;;5032722;28;20028;-75
2022/09/22 12:32:36;;;;;;;7.82;1.75;;;21.20;70.90;;;;;;5032823;28;20091;-75
2022/09/22 12:35:03;;;;;;;4.45;1.70;;;21.20;69.40;;;;;;5032720;28;20029;-74
2022/09/22 12:37:33;;;;;;;7.60;1.80;;;21.10;69.70;;;;;;5031046;28;20074;-75
2022/09/22 12:40:34;;;;;;;4.68;1.80;;;21.00;68.70;;;;;;5032445;28;20034;-75
2022/09/22 12:43:00;;;;;;;4.80;2.00;;;20.80;68.60;;;;;;5031190;28;20053;-75
2022/09/22 12:45:33;;;;;;;4.30;1.55;;;20.70;68.40;;;;;;5032452;28;20018;-75
2022/09/22 12:48:07;;;;;;;3.83;1.60;;;20.60;69.70;;;;;;5032954;28;20033;-75
2022/09/22 12:50:41;;;;;;;4.38;2.03;;;20.60;69.00;;;;;;5031946;28;20087;-75
2022/09/22 12:53:22;;;;;;;4.25;1.70;;;20.60;69.30;;;;;;5032853;28;20568;-74
2022/09/22 12:55:53;;;;;;;5.07;1.30;;;20.70;68.60;;;;;;5031914;28;20072;-74
2022/09/22 12:58:22;;;;;;;3.70;1.70;;;20.70;69.30;;;;;;5044928;28;20420;-75
2022/09/22 13:00:52;;;;;;;4.88;1.70;;;20.70;67.70;;;;;;5036298;28;20079;-74
2022/09/22 13:03:24;;;;;;;5.32;2.30;;;20.70;68.20;;;;;;5041910;28;20112;-74
2022/09/22 13:05:51;;;;;;;4.13;2.28;;;20.70;67.80;;;;;;5035004;28;20019;-75
2022/09/22 13:08:37;;;;;;;5.25;2.28;;;20.70;69.10;;;;;;5050788;28;20508;-74
2022/09/22 13:11:08;;;;;;;7.45;2.35;;;20.70;69.80;;;;;;5007845;28;20100;-75
2022/09/22 13:13:50;;;;;;;9.50;2.30;;;20.80;69.80;;;;;;5032316;28;20104;-74
2022/09/22 13:16:16;;;;;;;7.15;2.38;;;20.90;68.90;;;;;;5016537;28;20554;-75